createdAt,value
2022-08-06T00:00:06.820Z,101772.00
2022-08-06T00:02:36.244Z,101781.00
2022-08-06T00:05:05.123Z,101790.00
2022-08-06T00:07:44.722Z,101787.00
2022-08-06T00:10:15.807Z,101792.00
2022-08-06T00:12:42.671Z,101795.00
2022-08-06T00:15:14.675Z,101807.00
2022-08-06T00:17:46.182Z,101800.00
2022-08-06T00:20:15.203Z,101812.00
2022-08-06T00:22:53.422Z,101802.00
2022-08-06T00:25:20.484Z,101805.00
2022-08-06T00:27:51.251Z,101814.00
2022-08-06T00:30:22.392Z,101810.00
2022-08-06T00:32:52.284Z,101816.00
2022-08-06T00:35:24.067Z,101816.00
2022-08-06T00:37:59.136Z,101822.00
2022-08-06T00:40:29.706Z,101825.00
2022-08-06T00:43:00.797Z,101818.00
2022-08-06T00:45:31.575Z,101811.00
2022-08-06T00:48:03.324Z,101817.00
2022-08-06T00:50:35.132Z,101826.00
2022-08-06T00:53:04.101Z,101824.00
2022-08-06T00:55:36.306Z,101832.00
2022-08-06T00:58:05.690Z,101843.00
2022-08-06T01:00:38.677Z,101829.00
2022-08-06T01:03:27.210Z,101837.00
2022-08-06T01:06:07.114Z,101842.00
2022-08-06T01:08:42.469Z,101842.00
2022-08-06T01:11:12.337Z,101844.00
2022-08-06T01:14:03.166Z,101839.00
2022-08-06T01:16:49.344Z,101852.00
2022-08-06T01:19:50.774Z,101853.00
2022-08-06T01:22:37.932Z,101850.00
2022-08-06T01:25:47.476Z,101863.00
2022-08-06T01:28:38.469Z,101859.00
2022-08-06T01:31:15.481Z,101858.00
2022-08-06T01:33:48.052Z,101865.00
2022-08-06T01:36:27.570Z,101856.00
2022-08-06T01:38:59.552Z,101855.00
2022-08-06T01:41:54.991Z,101862.00
2022-08-06T01:44:30.638Z,101873.00
2022-08-06T01:47:00.825Z,101875.00
2022-08-06T01:49:59.646Z,101882.00
2022-08-06T01:52:29.758Z,101884.00
2022-08-06T01:54:59.403Z,101885.00
2022-08-06T01:58:04.995Z,101895.00
2022-08-06T02:00:14.697Z,101894.00
2022-08-06T02:02:43.477Z,101886.00
2022-08-06T02:05:12.223Z,101898.00
2022-08-06T02:08:34.144Z,101905.00
2022-08-06T02:10:31.088Z,101901.00
2022-08-06T02:13:03.043Z,101902.00
2022-08-06T02:15:56.233Z,101898.00
2022-08-06T02:18:34.879Z,101909.00
2022-08-06T02:21:13.832Z,101914.00
2022-08-06T02:23:48.151Z,101896.00
2022-08-06T02:26:18.869Z,101900.00
2022-08-06T02:28:50.263Z,101901.00
2022-08-06T02:31:17.626Z,101908.00
2022-08-06T02:34:02.696Z,101914.00
2022-08-06T02:36:50.007Z,101904.00
2022-08-06T02:39:30.131Z,101898.00
2022-08-06T02:42:29.019Z,101917.00
2022-08-06T02:45:09.776Z,101916.00
2022-08-06T02:47:56.328Z,101900.00
2022-08-06T02:50:37.039Z,101915.00
2022-08-06T02:53:24.082Z,101905.00
2022-08-06T02:55:57.718Z,101903.00
2022-08-06T02:58:57.406Z,101904.00
2022-08-06T03:01:43.808Z,101914.00
2022-08-06T03:04:12.127Z,101914.00
2022-08-06T03:06:42.087Z,101920.00
2022-08-06T03:09:10.130Z,101913.00
2022-08-06T03:11:42.200Z,101916.00
2022-08-06T03:14:13.080Z,101908.00
2022-08-06T03:16:58.454Z,101909.00
2022-08-06T03:19:54.632Z,101913.00
2022-08-06T03:22:18.561Z,101902.00
2022-08-06T03:25:03.459Z,101913.00
2022-08-06T03:27:31.958Z,101916.00
2022-08-06T03:30:12.828Z,101915.00
2022-08-06T03:32:59.261Z,101913.00
2022-08-06T03:35:41.985Z,101922.00
2022-08-06T03:38:18.004Z,101930.00
2022-08-06T03:40:46.430Z,101924.00
2022-08-06T03:43:16.254Z,101920.00
2022-08-06T03:45:57.944Z,101923.00
2022-08-06T03:48:32.707Z,101930.00
2022-08-06T03:51:09.059Z,101932.00
2022-08-06T03:53:38.478Z,101938.00
2022-08-06T03:56:07.633Z,101934.00
2022-08-06T03:58:42.205Z,101930.00
2022-08-06T04:01:13.277Z,101927.00
2022-08-06T04:03:40.705Z,101935.00
2022-08-06T04:06:16.712Z,101944.00
2022-08-06T04:08:47.779Z,101944.00
2022-08-06T04:12:13.900Z,101929.00
2022-08-06T04:14:07.415Z,101944.00
2022-08-06T04:16:36.116Z,101943.00
2022-08-06T04:19:09.077Z,101941.00
2022-08-06T04:22:59.659Z,101935.00
2022-08-06T04:24:30.450Z,101939.00
2022-08-06T04:27:09.503Z,101942.00
2022-08-06T04:29:56.571Z,101961.00
2022-08-06T04:32:31.719Z,101963.00
2022-08-06T04:36:05.831Z,101966.00
2022-08-06T04:37:53.232Z,101970.00
2022-08-06T04:40:34.542Z,101976.00
2022-08-06T04:43:05.585Z,101978.00
2022-08-06T04:46:17.838Z,101979.00
2022-08-06T04:48:20.936Z,101981.00
2022-08-06T04:50:48.353Z,101973.00
2022-08-06T04:53:30.284Z,101984.00
2022-08-06T04:56:04.980Z,101979.00
2022-08-06T04:58:33.190Z,101987.00
2022-08-06T05:01:06.843Z,101986.00
2022-08-06T05:04:06.958Z,101985.00
2022-08-06T05:06:47.360Z,101995.00
2022-08-06T05:09:42.506Z,102003.00
2022-08-06T05:12:33.979Z,102021.00
2022-08-06T05:15:21.924Z,102016.00
2022-08-06T05:18:09.682Z,102020.00
2022-08-06T05:20:52.917Z,102032.00
2022-08-06T05:23:27.955Z,102027.00
2022-08-06T05:25:59.186Z,102043.00
2022-08-06T05:28:27.770Z,102041.00
2022-08-06T05:30:56.945Z,102045.00
2022-08-06T05:33:37.526Z,102045.00
2022-08-06T05:36:08.153Z,102039.00
2022-08-06T05:38:59.028Z,102047.00
2022-08-06T05:41:29.557Z,102047.00
2022-08-06T05:43:58.723Z,102058.00
2022-08-06T05:46:30.978Z,102054.00
2022-08-06T05:49:23.398Z,102065.00
2022-08-06T05:52:04.449Z,102067.00
2022-08-06T05:54:51.438Z,102071.00
2022-08-06T05:58:05.596Z,102074.00
2022-08-06T06:00:43.952Z,102084.00
2022-08-06T06:03:25.412Z,102079.00
2022-08-06T06:06:16.211Z,102085.00
2022-08-06T06:08:58.778Z,102093.00
2022-08-06T06:11:54.709Z,102094.00
2022-08-06T06:14:32.312Z,102087.00
2022-08-06T06:17:39.818Z,102101.00
2022-08-06T06:21:04.029Z,102100.00
2022-08-06T06:23:39.193Z,102112.00
2022-08-06T06:26:33.379Z,102119.00
2022-08-06T06:30:00.746Z,102111.00
2022-08-06T06:32:30.293Z,102134.00
2022-08-06T06:35:04.124Z,102137.00
2022-08-06T06:37:51.863Z,102140.00
2022-08-06T06:40:52.889Z,102136.00
2022-08-06T06:43:54.028Z,102156.00
2022-08-06T06:46:38.952Z,102149.00
2022-08-06T06:50:00.769Z,102169.00
2022-08-06T06:52:30.599Z,102172.00
2022-08-06T06:55:15.757Z,102184.00
2022-08-06T06:57:51.748Z,102181.00
2022-08-06T07:00:46.027Z,102197.00
2022-08-06T07:03:10.049Z,102193.00
2022-08-06T07:06:05.697Z,102200.00
2022-08-06T07:08:37.171Z,102190.00
2022-08-06T07:11:09.970Z,102183.00
2022-08-06T07:13:47.008Z,102192.00
2022-08-06T07:16:34.983Z,102185.00
2022-08-06T07:19:10.614Z,102192.00
2022-08-06T07:21:47.849Z,102208.00
2022-08-06T07:24:38.230Z,102205.00
2022-08-06T07:27:07.750Z,102210.00
2022-08-06T07:29:49.274Z,102229.00
2022-08-06T07:32:32.181Z,102231.00
2022-08-06T07:35:01.239Z,102252.00
2022-08-06T07:37:39.023Z,102248.00
2022-08-06T07:40:08.253Z,102225.00
2022-08-06T07:42:38.518Z,102248.00
2022-08-06T07:45:11.021Z,102226.00
2022-08-06T07:47:55.311Z,102247.00
2022-08-06T07:50:24.621Z,102230.00
2022-08-06T07:52:56.225Z,102254.00
2022-08-06T07:55:36.975Z,102277.00
2022-08-06T07:58:08.469Z,102278.00
2022-08-06T08:00:38.785Z,102276.00
2022-08-06T08:03:55.731Z,102291.00
2022-08-06T08:06:25.169Z,102288.00
2022-08-06T08:09:29.612Z,102285.00
2022-08-06T08:12:28.454Z,102287.00
2022-08-06T08:14:59.541Z,102303.00
2022-08-06T08:17:35.165Z,102306.00
2022-08-06T08:20:15.485Z,102297.00
2022-08-06T08:22:48.170Z,102297.00
2022-08-06T08:25:21.881Z,102304.00
2022-08-06T08:28:11.799Z,102298.00
2022-08-06T08:30:41.134Z,102321.00
2022-08-06T08:33:12.159Z,102333.00
2022-08-06T08:35:50.392Z,102322.00
2022-08-06T08:38:32.973Z,102315.00
2022-08-06T08:41:13.780Z,102327.00
2022-08-06T08:43:59.723Z,102315.00
2022-08-06T08:46:43.911Z,102286.00
2022-08-06T08:49:57.712Z,102289.00
2022-08-06T08:52:33.103Z,102312.00
2022-08-06T08:55:03.600Z,102300.00
2022-08-06T08:59:01.803Z,102289.00
2022-08-06T09:00:41.118Z,102289.00
2022-08-06T09:03:08.215Z,102280.00
2022-08-06T09:05:39.718Z,102292.00
2022-08-06T09:08:19.048Z,102275.00
2022-08-06T09:11:07.328Z,102280.00
2022-08-06T09:13:51.055Z,102275.00
2022-08-06T09:16:19.616Z,102290.00
2022-08-06T09:19:00.292Z,102325.00
2022-08-06T09:21:28.744Z,102324.00
2022-08-06T09:23:58.652Z,102348.00
2022-08-06T09:26:54.003Z,102345.00
2022-08-06T09:29:23.025Z,102349.00
2022-08-06T09:31:50.337Z,102325.00
2022-08-06T09:34:32.872Z,102368.00
2022-08-06T09:37:06.741Z,102337.00
2022-08-06T09:39:46.264Z,102343.00
2022-08-06T09:42:43.085Z,102322.00
2022-08-06T09:45:17.525Z,102349.00
2022-08-06T09:48:04.475Z,102391.00
2022-08-06T09:50:39.005Z,102349.00
2022-08-06T09:53:12.944Z,102392.00
2022-08-06T09:55:41.902Z,102370.00
2022-08-06T09:58:08.946Z,102368.00
2022-08-06T10:00:38.584Z,102375.00
2022-08-06T10:04:03.647Z,102392.00
2022-08-06T10:06:15.732Z,102387.00
2022-08-06T10:08:46.171Z,102395.00
2022-08-06T10:11:32.903Z,102392.00
2022-08-06T10:14:23.491Z,102405.00
2022-08-06T10:17:11.078Z,102413.00
2022-08-06T10:19:52.192Z,102401.00
2022-08-06T10:22:21.926Z,102359.00
2022-08-06T10:24:55.142Z,102375.00
2022-08-06T10:27:35.912Z,102397.00
2022-08-06T10:30:07.257Z,102377.00
2022-08-06T10:33:02.905Z,102412.00
2022-08-06T10:35:30.847Z,102404.00
2022-08-06T10:38:14.410Z,102403.00
2022-08-06T10:40:43.863Z,102388.00
2022-08-06T10:43:25.955Z,102407.00
2022-08-06T10:45:54.155Z,102415.00
2022-08-06T10:48:59.271Z,102402.00
2022-08-06T10:51:13.085Z,102398.00
2022-08-06T10:54:00.665Z,102393.00
2022-08-06T10:56:37.225Z,102416.00
2022-08-06T10:59:07.828Z,102410.00
2022-08-06T11:02:14.673Z,102404.00
2022-08-06T11:04:53.758Z,102376.00
2022-08-06T11:08:09.640Z,102382.00
2022-08-06T11:10:58.277Z,102381.00
2022-08-06T11:13:37.403Z,102361.00
2022-08-06T11:16:27.676Z,102377.00
2022-08-06T11:19:09.446Z,102369.00
2022-08-06T11:21:58.667Z,102371.00
2022-08-06T11:24:33.484Z,102389.00
2022-08-06T11:27:11.112Z,102406.00
2022-08-06T11:30:13.182Z,102421.00
2022-08-06T11:32:58.371Z,102405.00
2022-08-06T11:35:36.030Z,102413.00
2022-08-06T11:38:24.264Z,102418.00
2022-08-06T11:40:55.298Z,102401.00
2022-08-06T11:44:03.572Z,102381.00
2022-08-06T11:46:42.892Z,102387.00
2022-08-06T11:49:18.343Z,102375.00
2022-08-06T11:52:06.842Z,102394.00
2022-08-06T11:54:47.861Z,102399.00
2022-08-06T11:57:23.578Z,102393.00
2022-08-06T12:00:06.354Z,102368.00
2022-08-06T12:02:45.157Z,102385.00
2022-08-06T12:05:17.571Z,102371.00
2022-08-06T12:07:52.293Z,102365.00
2022-08-06T12:10:28.859Z,102389.00
2022-08-06T12:12:56.798Z,102382.00
2022-08-06T12:15:59.103Z,102368.00
2022-08-06T12:18:21.077Z,102378.00
2022-08-06T12:20:56.525Z,102350.00
2022-08-06T12:23:54.832Z,102358.00
2022-08-06T12:26:12.057Z,102356.00
2022-08-06T12:28:39.621Z,102364.00
2022-08-06T12:31:36.135Z,102363.00
2022-08-06T12:33:53.526Z,102369.00
2022-08-06T12:36:32.301Z,102385.00
2022-08-06T12:39:04.534Z,102373.00
2022-08-06T12:41:46.947Z,102377.00
2022-08-06T12:44:56.045Z,102389.00
2022-08-06T12:47:15.013Z,102345.00
2022-08-06T12:49:43.954Z,102360.00
2022-08-06T12:52:18.054Z,102349.00
2022-08-06T12:54:45.135Z,102341.00
2022-08-06T12:57:28.834Z,102331.00
2022-08-06T13:00:13.123Z,102367.00
2022-08-06T13:02:42.314Z,102353.00
2022-08-06T13:05:11.251Z,102356.00
2022-08-06T13:07:43.409Z,102354.00
2022-08-06T13:10:33.804Z,102329.00
2022-08-06T13:14:15.206Z,102333.00
2022-08-06T13:16:03.160Z,102322.00
2022-08-06T13:18:42.020Z,102324.00
2022-08-06T13:21:22.175Z,102331.00
2022-08-06T13:23:52.892Z,102329.00
2022-08-06T13:26:26.939Z,102328.00
2022-08-06T13:30:29.445Z,102322.00
2022-08-06T13:32:19.220Z,102324.00
2022-08-06T13:34:57.904Z,102333.00
2022-08-06T13:37:56.875Z,102319.00
2022-08-06T13:40:38.497Z,102317.00
2022-08-06T13:43:05.397Z,102307.00
2022-08-06T13:45:56.294Z,102332.00
2022-08-06T13:48:23.783Z,102329.00
2022-08-06T13:50:50.795Z,102327.00
2022-08-06T13:53:17.768Z,102328.00
2022-08-06T13:56:01.630Z,102337.00
2022-08-06T13:58:30.732Z,102348.00
2022-08-06T14:00:58.153Z,102316.00
2022-08-06T14:03:26.496Z,102354.00
2022-08-06T14:05:53.651Z,102342.00
2022-08-06T14:08:34.502Z,102347.00
2022-08-06T14:11:03.171Z,102354.00
2022-08-06T14:13:30.913Z,102353.00
2022-08-06T14:16:01.598Z,102358.00
2022-08-06T14:18:32.035Z,102355.00
2022-08-06T14:21:01.854Z,102363.00
2022-08-06T14:23:39.957Z,102371.00
2022-08-06T14:26:08.529Z,102363.00
2022-08-06T14:28:41.214Z,102363.00
2022-08-06T14:31:22.740Z,102349.00
2022-08-06T14:33:59.721Z,102349.00
2022-08-06T14:36:29.205Z,102344.00
2022-08-06T14:39:00.543Z,102345.00
2022-08-06T14:42:06.356Z,102349.00
2022-08-06T14:44:56.405Z,102360.00
2022-08-06T14:47:57.414Z,102338.00
2022-08-06T14:50:10.348Z,102349.00
2022-08-06T14:52:37.166Z,102349.00
2022-08-06T14:55:07.503Z,102328.00
2022-08-06T14:58:03.088Z,102321.00
2022-08-06T15:00:26.448Z,102325.00
2022-08-06T15:03:02.070Z,102336.00
2022-08-06T15:05:42.416Z,102314.00
2022-08-06T15:08:15.719Z,102321.00
2022-08-06T15:10:42.731Z,102299.00
2022-08-06T15:13:09.497Z,102309.00
2022-08-06T15:15:47.085Z,102335.00
2022-08-06T15:18:40.078Z,102342.00
2022-08-06T15:21:06.000Z,102347.00
2022-08-06T15:23:54.146Z,102342.00
2022-08-06T15:26:47.269Z,102326.00
2022-08-06T15:29:10.232Z,102339.00
2022-08-06T15:31:39.807Z,102317.00
2022-08-06T15:34:07.848Z,102319.00
2022-08-06T15:36:39.949Z,102335.00
2022-08-06T15:39:51.386Z,102324.00
2022-08-06T15:42:13.596Z,102312.00
2022-08-06T15:44:42.023Z,102295.00
2022-08-06T15:47:09.506Z,102297.00
2022-08-06T15:49:56.977Z,102294.00
2022-08-06T15:52:26.435Z,102301.00
2022-08-06T15:54:53.551Z,102290.00
2022-08-06T15:58:05.464Z,102307.00
2022-08-06T16:00:17.322Z,102309.00
2022-08-06T16:02:50.304Z,102308.00
2022-08-06T16:05:32.923Z,102330.00
2022-08-06T16:08:09.719Z,102333.00
2022-08-06T16:10:47.012Z,102322.00
2022-08-06T16:13:20.749Z,102332.00
2022-08-06T16:15:50.676Z,102328.00
2022-08-06T16:18:30.362Z,102329.00
2022-08-06T16:21:06.067Z,102316.00
2022-08-06T16:23:56.971Z,102329.00
2022-08-06T16:26:39.795Z,102320.00
2022-08-06T16:29:09.397Z,102318.00
2022-08-06T16:31:46.818Z,102320.00
2022-08-06T16:34:15.486Z,102313.00
2022-08-06T16:36:44.425Z,102323.00
2022-08-06T16:39:12.617Z,102297.00
2022-08-06T16:41:58.744Z,102312.00
2022-08-06T16:44:34.940Z,102278.00
2022-08-06T16:47:15.008Z,102290.00
2022-08-06T16:50:17.805Z,102310.00
2022-08-06T16:55:16.802Z,102318.00
2022-08-06T16:57:49.865Z,102296.00
2022-08-06T17:01:00.257Z,102307.00
2022-08-06T17:03:11.038Z,102301.00
2022-08-06T17:05:46.537Z,102299.00
2022-08-06T17:08:19.907Z,102303.00
2022-08-06T17:13:38.443Z,102300.00
2022-08-06T17:16:12.142Z,102277.00
2022-08-06T17:18:40.004Z,102289.00
2022-08-06T17:21:09.913Z,102295.00
2022-08-06T17:23:37.847Z,102289.00
2022-08-06T17:26:07.870Z,102292.00
2022-08-06T17:28:34.951Z,102286.00
2022-08-06T17:31:01.869Z,102276.00
2022-08-06T17:33:40.517Z,102278.00
2022-08-06T17:36:31.694Z,102273.00
2022-08-06T17:38:55.086Z,102276.00
2022-08-06T17:41:22.510Z,102274.00
2022-08-06T17:43:54.762Z,102260.00
2022-08-06T17:46:26.181Z,102264.00
2022-08-06T17:48:56.043Z,102281.00
2022-08-06T17:51:23.063Z,102280.00
2022-08-06T17:53:54.241Z,102292.00
2022-08-06T17:56:29.680Z,102279.00
2022-08-06T17:59:16.643Z,102275.00
2022-08-06T18:01:46.717Z,102281.00
2022-08-06T18:04:21.311Z,102282.00
2022-08-06T18:06:49.670Z,102269.00
2022-08-06T18:10:09.683Z,102277.00
2022-08-06T18:12:04.285Z,102267.00
2022-08-06T18:14:33.392Z,102267.00
2022-08-06T18:17:01.273Z,102259.00
2022-08-06T18:19:34.025Z,102257.00
2022-08-06T18:22:05.959Z,102278.00
2022-08-06T18:24:50.561Z,102281.00
2022-08-06T18:27:53.292Z,102273.00
2022-08-06T18:30:05.982Z,102271.00
2022-08-06T18:32:37.947Z,102274.00
2022-08-06T18:35:17.474Z,102279.00
2022-08-06T18:38:01.122Z,102281.00
2022-08-06T18:40:39.777Z,102279.00
2022-08-06T18:43:10.235Z,102279.00
2022-08-06T18:45:58.517Z,102279.00
2022-08-06T18:48:27.258Z,102281.00
2022-08-06T18:50:55.796Z,102280.00
2022-08-06T18:54:00.462Z,102291.00
2022-08-06T18:56:10.287Z,102287.00
2022-08-06T18:58:47.014Z,102285.00
2022-08-06T19:01:20.511Z,102286.00
2022-08-06T19:03:50.262Z,102281.00
2022-08-06T19:06:29.092Z,102280.00
2022-08-06T19:08:58.434Z,102275.00
2022-08-06T19:11:38.736Z,102281.00
2022-08-06T19:14:19.386Z,102268.00
2022-08-06T19:16:48.797Z,102277.00
2022-08-06T19:19:46.363Z,102274.00
2022-08-06T19:22:09.329Z,102281.00
2022-08-06T19:24:39.859Z,102275.00
2022-08-06T19:27:13.682Z,102277.00
2022-08-06T19:29:58.679Z,102270.00
2022-08-06T19:32:35.795Z,102281.00
2022-08-06T19:35:15.172Z,102274.00
2022-08-06T19:38:08.208Z,102288.00
2022-08-06T19:40:48.496Z,102280.00
2022-08-06T19:44:28.824Z,102296.00
2022-08-06T19:46:34.920Z,102290.00
2022-08-06T19:49:17.000Z,102279.00
2022-08-06T19:52:02.895Z,102282.00
2022-08-06T19:54:36.270Z,102276.00
2022-08-06T19:57:08.451Z,102277.00
2022-08-06T20:00:52.767Z,102289.00
2022-08-06T20:02:32.264Z,102292.00
2022-08-06T20:04:59.299Z,102292.00
2022-08-06T20:07:28.063Z,102292.00
2022-08-06T20:09:59.939Z,102300.00
2022-08-06T20:12:35.174Z,102297.00
2022-08-06T20:15:08.376Z,102286.00
2022-08-06T20:17:48.856Z,102285.00
2022-08-06T20:20:29.116Z,102274.00
2022-08-06T20:23:11.503Z,102279.00
2022-08-06T20:26:34.322Z,102294.00
2022-08-06T20:29:09.417Z,102281.00
2022-08-06T20:31:20.948Z,102289.00
2022-08-06T20:33:57.971Z,102292.00
2022-08-06T20:36:31.019Z,102297.00
2022-08-06T20:38:59.045Z,102303.00
2022-08-06T20:42:03.003Z,102297.00
2022-08-06T20:44:18.293Z,102298.00
2022-08-06T20:47:48.719Z,102300.00
2022-08-06T20:50:01.787Z,102289.00
2022-08-06T20:52:23.945Z,102294.00
2022-08-06T20:54:51.784Z,102281.00
2022-08-06T20:57:26.611Z,102280.00
2022-08-06T20:59:59.266Z,102291.00
2022-08-06T21:02:31.812Z,102284.00
2022-08-06T21:05:16.037Z,102292.00
2022-08-06T21:07:56.488Z,102302.00
2022-08-06T21:10:26.220Z,102299.00
2022-08-06T21:13:00.622Z,102302.00
2022-08-06T21:15:54.508Z,102301.00
2022-08-06T21:18:21.327Z,102314.00
2022-08-06T21:20:51.046Z,102302.00
2022-08-06T21:23:41.901Z,102295.00
2022-08-06T21:26:15.203Z,102301.00
2022-08-06T21:28:52.352Z,102313.00
2022-08-06T21:31:24.306Z,102304.00
2022-08-06T21:33:54.183Z,102306.00
2022-08-06T21:36:25.998Z,102297.00
2022-08-06T21:38:55.444Z,102301.00
2022-08-06T21:41:54.801Z,102301.00
2022-08-06T21:44:24.537Z,102306.00
2022-08-06T21:46:58.100Z,102305.00
2022-08-06T21:49:58.136Z,102300.00
2022-08-06T21:52:28.317Z,102303.00
2022-08-06T21:55:05.659Z,102300.00
2022-08-06T21:57:45.486Z,102306.00
2022-08-06T22:00:39.946Z,102293.00
2022-08-06T22:03:13.724Z,102307.00
2022-08-06T22:06:20.226Z,102293.00
2022-08-06T22:08:53.693Z,102286.00
2022-08-06T22:12:38.799Z,102280.00
2022-08-06T22:14:11.999Z,102282.00
2022-08-06T22:16:43.729Z,102283.00
2022-08-06T22:19:15.135Z,102283.00
2022-08-06T22:21:50.836Z,102284.00
2022-08-06T22:24:22.932Z,102276.00
2022-08-06T22:26:53.100Z,102273.00
2022-08-06T22:29:27.233Z,102286.00
2022-08-06T22:31:57.659Z,102287.00
2022-08-06T22:34:36.192Z,102285.00
2022-08-06T22:37:05.528Z,102285.00
2022-08-06T22:39:36.376Z,102286.00
2022-08-06T22:42:07.995Z,102279.00
2022-08-06T22:45:06.705Z,102273.00
2022-08-06T22:47:36.687Z,102278.00
2022-08-06T22:50:11.089Z,102279.00
2022-08-06T22:53:02.465Z,102274.00
2022-08-06T22:55:27.079Z,102270.00
2022-08-06T22:58:47.365Z,102274.00
2022-08-06T23:00:42.914Z,102261.00
2022-08-06T23:03:14.308Z,102261.00
2022-08-06T23:05:44.567Z,102267.00
2022-08-06T23:08:14.669Z,102265.00
2022-08-06T23:10:48.984Z,102260.00
2022-08-06T23:13:26.057Z,102279.00
2022-08-06T23:15:58.488Z,102265.00
2022-08-06T23:18:29.642Z,102265.00
2022-08-06T23:21:20.278Z,102279.00
2022-08-06T23:23:53.996Z,102257.00
2022-08-06T23:26:22.163Z,102258.00
2022-08-06T23:29:08.898Z,102265.00
2022-08-06T23:31:37.611Z,102265.00
2022-08-06T23:34:21.314Z,102266.00
2022-08-06T23:36:57.406Z,102261.00
2022-08-06T23:39:36.593Z,102259.00
2022-08-06T23:42:08.734Z,102258.00
2022-08-06T23:44:51.392Z,102260.00
2022-08-06T23:47:53.554Z,102261.00
2022-08-06T23:50:09.660Z,102252.00
2022-08-06T23:52:41.609Z,102250.00
2022-08-06T23:55:25.931Z,102249.00
2022-08-06T23:57:57.749Z,102252.00
